Αρχική σελίδα
METAR-TAF:

METAR-TAF

Αεροδρόμια :

Βαγδάτη, Ιράκ

γεωγραφικό πλάτος: 33-15-45N, γεωγραφικό μήκος: 44-14-04E, υψόμετρο: 35 μ

Παρών καιρός

Η αναφορά έγινε 34 λεπτά πριν, στις 21:00 UTC
Άνεμος 8 kt από Δ
Θερμοκρασία 31°C
Υγρασία 29%
Πίεση 1002 hPa
Ορατότητα 10 χλμ και άνω
Δεν υπάρχουν νέφη με βάση κάτω από τα 1500 μ. και δεν υπάρχουν νέφη σωρειτομελανίτες.

METAR: ORBI 232100Z 26008KT CAVOK 31/11 Q1002 NOSIG

Χρόνος: 00:34 (21:34 UTC)

Πρόγνωση Καιρού

Η αναφορά έγινε 5 ώρες και 34 λεπτά πριν, στις 16:00 UTC
Η πρόγνωση ισχύει από τις 23 στις 18 UTC έως τις 24 στις 18 UTC
Άνεμος 12 kt από
Ορατότητα: 8000 μ

TAF: ORBI 231600Z 2318/2418 32012KT 8000 NSC

Μετεωρολογικές αναφορές και προγνώσεις για περισσότερα από 4000 αεροδρόμια (δελτία METAR και TAF).

Οι διαθέσιμοι σταθμοί απεικονίζονται στο χάρτη με κίτρινες και κόκκινες κουκκίδες.

Μετακινήστε το ποντίκι πάνω από τις κουκκίδες για να δείτε το όνομα του σταθμού.

Στη συνέχεια, κάντε κλικ για να δείτε τις μετεωρολογικές αναφορές και τις προγνώσεις καιρού.

Για να αλλάξετε το χάρτη: κάντε κλικ στα πράσινα κουμπιά με τον μαύρο σταυρό για να ζουμάρετε, στο πράσινο κουμπί με την παύλα για να αφαιρέσετε το ζουμ ή στα πράσινα βέλη για να αντιπαραβάλλετε χάρτες.


METAR-TAF: